Latest Weather Observations for Hogan Island

IDV60801

Issued at 11:02 am EST Tuesday 28 July 2015 (issued every 30 minutes, with the page automatically refreshed every 10 minutes)

About weather observations | Map of weather stations | Latest weather observations for VIC | Other Formats
Station Details ID: 200838 Name: HOGAN ISLAND Lat: -39.22 Lon: 146.98 Height: 116.0 m
Data from the previous 72 hours. | See also: Recent months at Hogan Island
Date/Time
EST
Temp
°C
App
Temp
°C
Dew
Point
Rel
Hum
%
Delta-T
°C
Wind Press
QNH
hPa
Press
MSL
hPa
Rain
since 9 am
mm
Dir
 
Spd
km/h
Gust
km/h
Spd
kts
Gust
kts
28/11:00am 9.5 -2.7 7.4 87 1.0 W 61 74 33 40 1031.1 - 0.0
28/10:30am 11.7 1.1 8.4 80 1.6 W 54 61 29 33 1031.1 - 0.0
28/10:00am 10.3 -0.9 7.4 82 1.4 W 56 65 30 35 1030.7 - 0.0
28/09:30am 10.7 -0.4 7.9 83 1.4 W 56 65 30 35 1030.5 - 0.0
28/09:00am 11.0 -0.7 7.7 80 1.6 W 59 69 32 37 1030.2 1030.3 1.2
28/08:30am 10.6 -1.5 7.7 82 1.4 W 61 69 33 37 1030.0 - 1.2
28/08:00am 10.6 -0.7 8.0 84 1.3 WSW 57 67 31 36 1029.6 - 1.2
28/07:30am 10.2 -1.0 8.5 89 0.8 W 57 67 31 36 1029.2 - 1.2
28/07:00am 9.8 -1.8 8.1 89 0.8 WSW 59 72 32 39 1028.9 - 1.2
28/06:30am 9.9 -2.5 8.0 88 0.9 WSW 63 76 34 41 1028.4 - 0.8
28/06:00am 10.2 -1.0 8.5 89 0.8 WSW 57 67 31 36 1028.1 1028.3 0.8
28/05:30am 10.6 -0.6 8.4 86 1.1 WSW 57 67 31 36 1027.7 - 0.8
28/05:00am 10.7 -0.3 8.5 86 1.1 W 56 65 30 35 1027.5 - 0.8
28/04:30am 10.3 -0.4 8.1 86 1.1 WSW 54 61 29 33 1027.4 - 0.8
28/04:00am 10.6 0.4 8.4 86 1.1 WSW 52 63 28 34 1027.2 - 0.8
28/03:30am 10.3 0.0 8.1 86 1.1 W 52 57 28 31 1027.0 - 0.8
28/03:00am 11.0 0.6 7.9 81 1.5 WSW 52 61 28 33 1026.9 1027.1 0.8
28/02:30am 10.8 -0.4 7.7 81 1.5 WSW 56 67 30 36 1026.8 - 0.8
28/02:00am 10.7 -1.4 7.6 81 1.5 WSW 61 72 33 39 1026.2 - 0.8
28/01:30am 10.7 -1.4 7.9 83 1.4 WSW 61 70 33 38 1025.9 - 0.8
28/01:00am 10.6 -1.3 8.5 87 1.0 WSW 61 72 33 39 1025.6 - 0.8
28/12:30am 10.7 -1.2 8.6 87 1.0 WSW 61 72 33 39 1025.7 - 0.8
28/12:00am 10.6 -2.5 8.5 87 1.0 W 67 76 36 41 1025.4 1025.6 0.8
 
Date/Time
EST
Temp
°C
App
Temp
°C
Dew
Point
Rel
Hum
%
Delta-T
°C
Wind Press
QNH
hPa
Press
MSL
hPa
Rain
since 9 am
mm
Dir
 
Spd
km/h
Gust
km/h
Spd
kts
Gust
kts
27/11:30pm 10.9 -2.1 8.7 86 1.1 W 67 78 36 42 1025.2 - 0.8
27/11:00pm 10.8 -2.8 8.6 86 1.1 W 70 80 38 43 1025.1 - 0.8
27/10:30pm 10.9 -2.6 8.1 83 1.4 W 69 80 37 43 1025.1 - 0.8
27/10:05pm 10.9 -2.7 8.0 82 1.4 W 69 91 37 49 1024.9 - 0.8
27/10:00pm 10.8 -2.8 7.9 82 1.4 W 69 80 37 43 1025.2 - 0.8
27/09:30pm 10.7 -2.9 7.9 83 1.4 W 69 83 37 45 1025.3 - 0.8
27/09:00pm 10.3 -3.3 7.7 84 1.2 W 69 80 37 43 1025.0 1025.2 0.8
27/08:30pm 10.6 -3.0 7.8 83 1.4 W 69 80 37 43 1024.9 - 0.8
27/08:00pm 10.1 -3.2 7.7 85 1.2 W 67 80 36 43 1025.1 - 0.8
27/07:53pm 10.3 -1.9 7.5 83 1.3 W 61 80 33 43 1024.9 - 0.8
27/07:30pm 10.1 -3.6 7.3 83 1.3 W 69 83 37 45 1024.8 - 0.8
27/07:02pm 10.0 -2.8 7.9 87 1.0 W 65 89 35 48 1024.4 - 0.8
27/07:00pm 10.1 -2.7 8.0 87 1.0 W 65 76 35 41 1024.7 - 0.8
27/06:38pm 9.5 -5.2 7.1 85 1.1 W 74 95 40 51 1023.9 - 0.6
27/06:30pm 9.7 -5.7 7.6 87 1.0 W 78 89 42 48 1024.0 - 0.6
27/06:00pm 9.6 -3.9 8.2 91 0.7 W 69 76 37 41 1024.0 1024.1 0.6
27/05:41pm 9.9 -5.2 7.3 84 1.2 W 76 96 41 52 1023.3 - 0.2
27/05:30pm 9.9 -3.4 7.5 85 1.2 W 67 83 36 45 1023.4 - 0.2
27/05:09pm 10.5 -4.7 6.8 78 1.8 W 76 95 41 51 1022.9 - 0.2
27/05:00pm 10.5 -5.1 6.6 77 1.8 W 78 91 42 49 1022.8 - 0.2
27/04:30pm 10.0 -4.3 7.4 84 1.2 W 72 82 39 44 1022.8 - 0.0
27/04:00pm 10.3 -4.9 6.6 78 1.7 W 76 93 41 50 1022.5 - 0.0
27/03:52pm 10.7 -3.1 6.8 77 1.9 W 69 93 37 50 1022.1 - 0.0
27/03:30pm 10.4 -3.9 7.3 81 1.5 W 72 85 39 46 1022.2 - 0.0
27/03:20pm 10.0 -4.1 5.8 75 1.9 WSW 69 89 37 48 1022.3 - 0.0
27/03:00pm 11.0 -4.2 6.6 74 2.1 W 76 85 41 46 1021.9 1022.0 0.0
27/02:30pm 11.2 -3.2 6.9 75 2.1 W 72 83 39 45 1021.8 - 0.0
27/02:00pm 10.4 -3.9 7.5 82 1.4 W 72 85 39 46 1021.5 - 0.0
27/01:34pm 11.0 -3.4 7.1 77 1.9 W 72 91 39 49 1021.5 - 0.0
27/01:30pm 10.2 -5.4 6.5 78 1.7 W 78 91 42 49 1021.4 - 0.0
27/01:00pm 11.6 -3.0 6.1 69 2.6 W 72 83 39 45 1021.4 - 0.0
27/12:30pm 10.8 -3.8 6.0 72 2.2 W 72 83 39 45 1021.7 - 0.0
27/12:00pm 11.7 -2.3 6.2 69 2.6 W 69 78 37 42 1022.3 1022.4 0.0
27/11:30am 11.2 -2.2 5.5 68 2.6 W 65 78 35 42 1022.4 - 0.0
27/11:00am 11.2 -1.7 5.9 70 2.5 W 63 74 34 40 1022.5 - 0.0
27/10:30am 10.6 -2.8 5.2 69 2.5 W 65 78 35 42 1022.1 - 0.0
27/10:00am 10.3 -2.0 5.3 71 2.3 WSW 59 70 32 38 1022.2 - 0.0
27/09:30am 9.9 -3.6 5.1 72 2.2 WSW 65 78 35 42 1021.8 - 0.0
27/09:00am 9.5 -5.3 4.9 73 2.1 WSW 72 87 39 47 1020.6 1020.7 12.8
27/08:30am 9.2 -4.8 4.4 72 2.1 WSW 67 80 36 43 1020.3 - 12.8
27/08:00am 8.8 -5.2 4.4 74 1.9 WSW 67 83 36 45 1020.1 - 12.8
27/07:30am 8.8 -6.2 3.8 71 2.2 WSW 72 83 39 45 1019.6 - 12.8
27/07:05am 8.5 -6.9 3.9 73 2.0 WSW 74 93 40 50 1018.9 - 12.8
27/07:00am 8.3 -6.2 4.5 77 1.7 WSW 70 85 38 46 1019.0 - 12.8
27/06:47am 8.3 -7.5 3.9 74 1.9 WSW 76 107 41 58 1018.5 - 12.8
27/06:30am 8.9 -6.9 3.5 69 2.3 WSW 76 89 41 48 1018.2 - 12.8
27/06:03am 8.8 -7.5 3.2 68 2.4 WSW 78 98 42 53 1017.6 - 12.8
27/06:00am 8.8 -6.7 3.4 69 2.3 WSW 74 91 40 49 1017.7 1017.9 12.8
27/05:30am 8.7 -6.7 3.9 72 2.1 WSW 74 95 40 51 1017.3 - 12.8
27/05:02am 8.0 -6.7 3.8 75 1.8 WSW 70 89 38 48 1017.7 - 12.8
27/05:00am 8.0 -7.0 3.8 75 1.8 WSW 72 89 39 48 1017.7 - 12.8
27/04:30am 6.9 -9.4 4.9 87 0.9 WSW 80 106 43 57 1016.9 - 12.6
27/04:23am 6.8 -8.2 4.1 83 1.2 WSW 72 102 39 55 1016.7 - 12.4
27/04:15am 6.6 -7.8 3.9 83 1.2 WSW 69 106 37 57 1016.9 - 12.4
27/04:08am 6.2 -12.1 3.5 83 1.1 WSW 89 109 48 59 1016.6 - 12.4
27/04:06am 6.6 -13.0 3.6 81 1.3 WSW 96 109 52 59 1016.2 - 12.2
27/04:04am 7.9 -7.8 4.5 79 1.5 WSW 76 98 41 53 1016.2 - 12.2
27/04:00am 7.6 -8.0 4.6 81 1.3 WSW 76 91 41 49 1016.4 - 12.2
27/03:30am 7.5 -8.7 3.7 77 1.6 WSW 78 98 42 53 1015.9 - 12.2
27/03:05am 7.6 -8.2 3.5 75 1.8 WSW 76 95 41 51 1015.9 - 12.2
27/03:00am 8.4 -8.3 2.8 68 2.4 W 80 95 43 51 1015.4 1015.5 12.2
27/02:32am 7.6 -9.6 3.3 74 1.8 W 83 102 45 55 1015.5 - 12.2
27/02:30am 7.4 -10.2 3.1 74 1.8 W 85 102 46 55 1015.2 - 12.2
27/02:00am 7.9 -9.2 3.0 71 2.1 W 82 100 44 54 1014.9 - 12.2
27/01:30am 7.4 -8.5 3.3 75 1.7 WSW 76 87 41 47 1014.9 - 12.2
27/01:28am 7.7 -8.1 3.6 75 1.8 WSW 76 95 41 51 1014.9 - 12.2
27/01:00am 8.0 -8.2 3.5 73 1.9 W 78 95 42 51 1014.2 - 12.2
27/12:33am 8.6 -8.8 2.0 63 2.8 WSW 83 104 45 56 1013.5 - 12.2
27/12:30am 8.5 -8.3 2.7 67 2.5 WSW 80 93 43 50 1013.8 - 12.2
27/12:09am 8.0 -7.1 3.7 74 1.9 W 72 100 39 54 1013.8 - 12.2
27/12:00am 7.4 -11.8 3.1 74 1.8 WSW 93 113 50 61 1013.4 1013.5 12.2
 
Date/Time
EST
Temp
°C
App
Temp
°C
Dew
Point
Rel
Hum
%
Delta-T
°C
Wind Press
QNH
hPa
Press
MSL
hPa
Rain
since 9 am
mm
Dir
 
Spd
km/h
Gust
km/h
Spd
kts
Gust
kts
26/11:52pm 8.3 -9.7 3.4 71 2.1 WSW 87 109 47 59 1013.2 - 12.2
26/11:30pm 8.0 -8.2 3.8 75 1.8 WSW 78 91 42 49 1013.3 - 12.2
26/11:17pm 7.2 -8.5 4.5 83 1.2 WSW 76 119 41 64 1013.5 - 12.2
26/11:10pm 6.8 -13.6 3.8 81 1.3 WSW 100 119 54 64 1013.0 - 12.2
26/11:09pm 7.0 -14.2 3.6 79 1.5 WSW 104 119 56 64 1012.8 - 12.2
26/11:08pm 7.4 -9.2 3.6 77 1.6 W 80 119 43 64 1012.6 - 12.2
26/11:03pm 8.6 -7.5 4.0 73 2.0 W 78 96 42 52 1013.3 - 12.2
26/11:00pm 8.5 -8.1 3.6 71 2.1 W 80 96 43 52 1013.3 - 12.2
26/10:39pm 8.1 -8.9 3.4 72 2.0 WSW 82 100 44 54 1012.9 - 12.2
26/10:30pm 8.2 -9.6 4.0 75 1.8 WSW 87 100 47 54 1012.4 - 12.2
26/10:25pm 8.4 -8.3 4.8 78 1.6 WSW 82 96 44 52 1012.5 - 12.2
26/10:02pm 8.0 -8.6 5.6 85 1.1 W 82 100 44 54 1012.2 - 12.0
26/10:00pm 7.9 -8.8 5.7 86 1.0 W 83 100 45 54 1012.1 - 12.0
26/09:30pm 6.8 -10.8 5.1 89 0.8 W 87 107 47 58 1011.5 - 12.0
26/09:00pm 7.4 -11.5 6.3 93 0.5 W 95 115 51 62 1010.9 1011.0 11.6
26/08:30pm 7.2 -11.7 6.5 95 0.3 W 95 119 51 64 1010.1 - 11.4
26/08:22pm 6.5 -14.8 5.6 94 0.4 W 107 126 58 68 1009.9 - 11.2
26/08:16pm 6.2 -16.7 5.3 94 0.4 W 115 126 62 68 1009.3 - 10.8
26/08:00pm 8.8 -9.3 8.2 96 0.3 W 93 113 50 61 1009.4 - 10.4
26/07:30pm 7.4 -9.9 6.8 96 0.3 W 87 106 47 57 1009.2 - 10.4
26/07:18pm 5.9 -13.8 5.2 95 0.3 W 98 122 53 66 1009.2 - 9.4
26/07:11pm 8.0 -12.4 7.4 96 0.3 W 104 113 56 61 1008.3 - 9.4
26/07:04pm 7.7 -8.7 7.1 96 0.3 W 83 102 45 55 1008.7 - 9.4
26/07:00pm 7.5 -9.0 6.9 96 0.3 W 83 98 45 53 1009.1 - 9.4
26/06:46pm 6.8 -12.1 6.2 96 0.3 W 95 115 51 62 1008.7 - 9.2
26/06:40pm 6.3 -12.7 5.7 96 0.3 W 95 141 51 76 1008.6 - 9.2
26/06:33pm 6.4 -17.4 5.8 96 0.3 W 120 141 65 76 1007.5 - 9.0
26/06:32pm 6.0 -18.6 5.4 96 0.3 W 124 141 67 76 1007.2 - 8.8
26/06:30pm 7.6 -11.7 7.0 96 0.3 W 98 128 53 69 1007.2 - 8.8
26/06:20pm 7.0 -13.2 6.3 95 0.3 W 102 132 55 71 1007.6 - 8.8
26/06:04pm 6.3 -19.0 3.6 83 1.1 W 126 156 68 84 1006.3 - 7.2
26/06:03pm 6.6 -13.9 3.0 78 1.5 W 100 156 54 84 1006.3 - 7.2
26/06:00pm 8.4 -10.7 5.5 82 1.3 W 95 117 51 63 1006.5 1006.6 7.0
26/05:59pm 8.2 -10.5 5.5 83 1.2 W 93 117 50 63 1006.9 - 7.0
26/05:55pm 7.8 -11.0 5.1 83 1.2 W 93 128 50 69 1006.9 - 7.0
26/05:30pm 9.2 -13.7 3.2 66 2.6 W 113 137 61 74 1005.7 - 7.0
26/05:02pm 8.9 -12.6 3.7 70 2.3 W 106 130 57 70 1005.4 - 7.0
26/05:00pm 9.3 -11.8 4.1 70 2.3 W 104 120 56 65 1005.6 - 7.0
26/04:30pm 8.9 -11.9 3.3 68 2.4 W 102 122 55 66 1005.6 - 7.0
26/04:13pm 8.6 -9.6 4.2 74 1.9 W 89 120 48 65 1006.1 - 7.0
26/04:00pm 8.5 -13.5 4.1 74 1.9 W 109 132 59 71 1005.2 - 7.0
26/03:59pm 8.6 -13.8 4.0 73 2.0 W 111 132 60 71 1005.0 - 7.0
26/03:30pm 8.1 -10.5 4.1 76 1.7 W 91 115 49 62 1006.0 - 7.0
26/03:00pm 7.5 -10.4 3.9 78 1.6 WNW 87 117 47 63 1005.2 1005.3 7.0
26/02:30pm 8.0 -9.6 5.3 83 1.2 WNW 87 106 47 57 1005.4 - 7.0
26/02:14pm 7.3 -8.8 5.9 91 0.6 W 80 113 43 61 1005.5 - 7.0
26/02:13pm 7.3 -7.7 5.9 91 0.6 W 74 113 40 61 1005.9 - 7.0
26/02:00pm 6.0 -13.7 5.0 93 0.4 W 98 117 53 63 1005.2 - 7.0
26/01:54pm 6.3 -14.5 5.4 94 0.4 WNW 104 115 56 62 1004.7 - 6.8
26/01:52pm 7.1 -6.9 6.2 94 0.4 WNW 69 100 37 54 1005.6 - 6.8
26/01:39pm 4.7 -9.0 3.8 94 0.4 WNW 65 111 35 60 1006.1 - 6.8
26/01:30pm 5.0 -13.6 4.0 93 0.4 W 91 113 49 61 1005.3 - 6.4
26/01:27pm 5.1 -12.7 4.1 93 0.4 W 87 107 47 58 1005.8 - 6.4
26/01:22pm 5.0 -12.8 4.0 93 0.4 W 87 126 47 68 1005.8 - 6.4
26/01:11pm 5.8 -16.6 4.0 88 0.8 WNW 111 130 60 70 1004.5 - 6.0
26/01:10pm 7.3 -13.8 5.6 89 0.8 WNW 106 120 57 65 1004.7 - 6.0
26/01:00pm 6.8 -9.1 5.3 90 0.7 W 78 96 42 52 1005.8 - 5.8
26/12:51pm 5.3 -10.6 3.0 85 1.0 W 76 96 41 52 1006.3 - 5.4
26/12:46pm 4.5 -12.5 1.4 80 1.2 WSW 80 104 43 56 1006.6 - 5.2
26/12:38pm 8.0 -8.0 4.8 80 1.4 WNW 78 96 42 52 1005.7 - 5.2
26/12:30pm 8.1 -8.1 5.7 85 1.1 WNW 80 96 43 52 1005.8 - 5.2
26/12:00pm 7.9 -8.5 7.1 95 0.4 WNW 83 102 45 55 1005.7 1005.8 5.2
26/11:35am 7.0 -7.9 6.4 96 0.3 WNW 74 93 40 50 1006.1 - 5.2
26/11:30am 7.0 -8.6 6.6 97 0.2 WNW 78 93 42 50 1006.0 - 5.2
26/11:21am 6.3 -9.5 5.9 97 0.2 WNW 78 124 42 67 1005.9 - 5.2
26/11:16am 5.8 -15.0 5.4 97 0.2 WNW 104 124 56 67 1005.4 - 5.2
26/11:11am 5.7 -15.5 5.3 97 0.2 WNW 106 117 57 63 1005.0 - 5.2
26/11:00am 6.3 -10.4 5.7 96 0.3 W 83 107 45 58 1006.2 - 5.0
26/10:42am 5.2 -11.6 4.6 96 0.3 W 82 106 44 57 1005.8 - 4.0
26/10:40am 5.8 -10.1 5.2 96 0.3 W 78 106 42 57 1006.1 - 3.8
26/10:31am 4.9 -15.4 4.2 95 0.3 W 100 119 54 64 1005.6 - 3.6
26/10:30am 4.9 -15.8 4.2 95 0.3 W 102 119 55 64 1005.4 - 3.4
26/10:28am 4.6 -16.9 3.9 95 0.3 W 106 119 57 64 1005.0 - 3.4
26/10:24am 5.4 -10.3 4.5 94 0.4 W 76 104 41 56 1006.0 - 2.6
26/10:17am 5.6 -10.4 4.6 93 0.4 W 78 124 42 67 1006.3 - 2.2
26/10:02am 5.7 -15.1 3.5 86 0.9 W 102 120 55 65 1004.4 - 1.0
26/10:00am 5.7 -14.8 3.2 84 1.0 W 100 115 54 62 1004.6 - 0.6
26/09:59am 5.6 -14.5 2.9 83 1.1 W 98 111 53 60 1004.7 - 0.6
26/09:44am 7.4 -7.5 4.7 83 1.2 WNW 72 98 39 53 1005.3 - 0.2
26/09:43am 7.2 -7.3 4.5 83 1.2 WNW 70 98 38 53 1005.4 - 0.2
26/09:30am 8.0 -10.1 4.6 79 1.5 WNW 89 100 48 54 1004.7 - 0.0
26/09:28am 8.1 -9.6 4.7 79 1.5 WNW 87 98 47 53 1004.6 - 0.0
26/09:00am 8.4 -5.2 6.4 87 0.9 WNW 67 89 36 48 1005.2 1005.3 3.0
26/08:56am 7.9 -4.2 6.0 88 0.9 W 59 80 32 43 1005.5 - 3.0
26/08:54am 7.5 -4.1 5.6 88 0.9 W 56 78 30 42 1005.7 - 3.0
26/08:41am 6.7 -9.3 4.5 86 1.0 W 78 96 42 52 1005.2 - 3.0
26/08:30am 7.9 -7.5 5.9 87 0.9 W 76 91 41 49 1004.8 - 3.0
26/08:13am 7.7 -5.6 5.8 88 0.9 W 65 85 35 46 1004.8 - 2.8
26/08:00am 7.1 -7.3 5.3 88 0.8 W 70 83 38 45 1005.0 - 2.8
26/07:30am 7.0 -9.4 4.8 86 1.0 W 80 98 43 53 1004.8 - 2.8
26/07:00am 7.3 -10.0 5.1 86 1.0 W 85 104 46 56 1004.3 - 2.8
26/06:48am 7.9 -9.3 5.5 85 1.1 W 85 104 46 56 1004.0 - 2.8
26/06:40am 7.3 -11.9 4.8 84 1.1 W 95 107 51 58 1003.5 - 2.8
26/06:33am 8.8 -6.1 6.4 85 1.1 W 74 93 40 50 1003.6 - 2.8
26/06:30am 8.7 -5.8 6.3 85 1.1 W 72 87 39 47 1003.7 - 2.8
26/06:07am 8.6 -8.1 5.0 78 1.6 W 82 100 44 54 1003.6 - 2.6
26/06:00am 8.9 -8.1 4.7 75 1.9 W 83 100 45 54 1003.4 1003.5 2.6
26/05:41am 9.4 -5.2 6.1 80 1.5 WNW 72 91 39 49 1003.7 - 2.6
26/05:30am 9.3 -4.6 6.6 83 1.3 W 69 83 37 45 1003.5 - 2.6
26/05:00am 9.6 -5.9 6.9 83 1.3 WNW 78 98 42 53 1003.3 - 2.6
26/04:30am 8.9 -5.9 7.0 88 0.9 WNW 74 93 40 50 1003.3 - 2.6
26/04:03am 8.4 -7.2 6.5 88 0.9 W 78 96 42 52 1003.7 - 2.2
26/04:00am 8.2 -8.4 6.3 88 0.9 W 83 96 45 52 1003.6 - 2.0
26/03:30am 7.8 -8.5 5.3 84 1.1 W 80 98 43 53 1003.7 - 2.0
26/03:26am 7.6 -7.6 4.7 82 1.3 WNW 74 98 40 53 1003.8 - 1.8
26/03:00am 9.5 -5.9 6.0 79 1.6 WNW 76 89 41 48 1003.3 1003.4 1.8
26/02:30am 9.5 -6.4 7.1 85 1.1 WNW 80 96 43 52 1004.0 - 1.6
26/02:00am 8.6 -7.9 6.2 85 1.1 WNW 82 102 44 55 1003.8 - 1.4
26/01:56am 8.8 -7.6 6.4 85 1.1 WNW 82 100 44 54 1004.0 - 1.4
26/01:49am 8.6 -8.9 5.9 83 1.2 WNW 87 109 47 59 1003.6 - 1.4
26/01:33am 8.0 -13.7 3.7 74 1.9 WNW 107 132 58 71 1002.7 - 0.2
26/01:32am 8.4 -6.6 3.8 73 2.0 NW 72 132 39 71 1002.3 - 0.0
26/01:31am 11.6 -2.3 6.5 71 2.4 NW 69 111 37 60 1003.1 - 0.0
26/01:30am 11.8 -1.8 6.3 69 2.6 NW 67 89 36 48 1003.4 - 0.0
26/01:12am 11.7 -1.5 6.2 69 2.6 NW 65 83 35 45 1003.6 - 0.0
26/01:00am 12.5 -1.7 6.1 65 3.0 NW 70 83 38 45 1003.5 - 0.0
26/12:47am 12.4 -1.3 5.6 63 3.2 NW 67 85 36 46 1003.5 - 0.0
26/12:30am 12.3 -1.1 5.2 62 3.3 NW 65 78 35 42 1003.7 - 0.0
26/12:00am 12.1 0.8 5.3 63 3.2 NNW 54 72 29 39 1004.2 1004.3 0.0
 
Date/Time
EST
Temp
°C
App
Temp
°C
Dew
Point
Rel
Hum
%
Delta-T
°C
Wind Press
QNH
hPa
Press
MSL
hPa
Rain
since 9 am
mm
Dir
 
Spd
km/h
Gust
km/h
Spd
kts
Gust
kts
25/11:35pm 11.8 0.5 5.2 64 3.1 NNW 54 72 29 39 1004.8 - 0.0
25/11:30pm 11.9 0.1 4.9 62 3.2 NNW 56 72 30 39 1004.9 - 0.0
25/11:01pm 11.9 1.7 5.3 64 3.1 NNW 48 69 26 37 1005.4 - 0.0
25/11:00pm 11.8 1.6 5.2 64 3.1 NNW 48 65 26 35 1005.5 - 0.0
25/10:30pm 11.6 2.3 5.0 64 3.0 NNW 43 61 23 33 1006.2 - 0.0
25/10:02pm 11.6 0.2 4.8 63 3.1 NNW 54 72 29 39 1006.5 - 0.0
25/10:00pm 11.7 -0.1 4.7 62 3.2 NNW 56 72 30 39 1006.5 - 0.0
25/09:30pm 11.5 -1.7 4.7 63 3.1 NW 63 74 34 40 1006.7 - 0.0
25/09:00pm 11.3 0.3 5.0 65 2.9 NNW 52 65 28 35 1007.1 1007.2 0.0
25/08:34pm 11.1 1.6 5.0 66 2.8 NNW 44 65 24 35 1007.5 - 0.0
25/08:30pm 11.1 1.6 4.8 65 2.9 NNW 44 57 24 31 1007.6 - 0.0
25/08:00pm 11.1 2.6 5.2 67 2.7 NNW 39 57 21 31 1007.9 - 0.0
25/07:46pm 11.2 2.7 5.1 66 2.8 NNW 39 57 21 31 1008.0 - 0.0
25/07:30pm 11.0 2.5 5.3 68 2.6 NNW 39 54 21 29 1008.1 - 0.0
25/07:00pm 10.9 0.4 5.4 69 2.5 NW 50 61 27 33 1008.3 - 0.0
25/06:30pm 10.7 0.5 5.0 68 2.6 NW 48 65 26 35 1008.4 - 0.0
25/06:07pm 11.0 -0.4 5.1 67 2.7 WNW 54 72 29 39 1008.4 - 0.0
25/06:00pm 10.8 -0.9 5.1 68 2.6 WNW 56 70 30 38 1008.6 1008.7 0.0
25/05:41pm 10.7 -0.7 4.8 67 2.7 NW 54 72 29 39 1008.7 - 0.0
25/05:30pm 10.7 -1.1 4.6 66 2.8 NW 56 70 30 38 1008.6 - 0.0
25/05:24pm 10.7 -0.4 4.6 66 2.8 NW 52 70 28 38 1008.8 - 0.0
25/05:00pm 10.9 -1.9 4.6 65 2.9 WNW 61 74 33 40 1008.9 - 0.0
25/04:30pm 11.1 -1.7 4.8 65 2.9 WNW 61 70 33 38 1008.7 - 0.0
25/04:00pm 11.0 -2.1 5.1 67 2.7 WNW 63 74 34 40 1008.5 - 0.0
25/03:30pm 11.1 -3.4 4.8 65 2.9 WNW 70 80 38 43 1008.1 - 0.0
25/03:00pm 11.0 -2.1 5.1 67 2.7 WNW 63 74 34 40 1008.4 1008.5 0.0
25/02:30pm 10.9 -2.9 5.2 68 2.6 WNW 67 78 36 42 1008.0 - 0.0
25/02:00pm 11.1 -3.2 5.6 69 2.6 WNW 70 82 38 44 1007.8 - 0.0
25/01:30pm 11.0 -3.3 5.5 69 2.5 WNW 70 82 38 44 1008.0 - 0.0
25/01:00pm 10.6 -2.0 5.6 71 2.3 WNW 61 72 33 39 1009.2 - 0.0
25/12:30pm 10.6 -1.9 5.8 72 2.2 WNW 61 74 33 40 1009.3 - 0.0
25/12:00pm 10.6 -3.5 5.6 71 2.3 WNW 69 87 37 47 1008.7 1008.8 0.0
25/11:34am 10.7 -2.5 6.3 74 2.1 WNW 65 83 35 45 1008.8 - 0.0
25/11:30am 10.7 -3.3 6.3 74 2.1 WNW 69 83 37 45 1008.7 - 0.0

Other Formats:

Comma delimited format used in spreadsheet applications
http://www.bom.gov.au/fwo/IDV60801/IDV60801.94949.axf

JavaScript Object Notation format (JSON) in row-major order
http://www.bom.gov.au/fwo/IDV60801/IDV60801.94949.json